sensor_id;sensor_type;location;lat;lon;timestamp;temperature;humidity
75387;DHT22;63966;47.914;22.266;2023-02-13T00:01:08;-1.98;83.15
75387;DHT22;63966;47.914;22.266;2023-02-13T00:04:11;-2.11;83.68
75387;DHT22;63966;47.914;22.266;2023-02-13T00:07:14;-2.22;84.46
75387;DHT22;63966;47.914;22.266;2023-02-13T00:10:18;-2.46;85.29
75387;DHT22;63966;47.914;22.266;2023-02-13T00:13:21;-2.50;85.58
75387;DHT22;63966;47.914;22.266;2023-02-13T00:16:25;-2.54;85.46
75387;DHT22;63966;47.914;22.266;2023-02-13T00:19:28;-2.59;85.54
75387;DHT22;63966;47.914;22.266;2023-02-13T00:22:36;-2.61;85.82
75387;DHT22;63966;47.914;22.266;2023-02-13T00:25:40;-2.59;85.70
75387;DHT22;63966;47.914;22.266;2023-02-13T00:28:43;-2.59;85.55
75387;DHT22;63966;47.914;22.266;2023-02-13T00:31:47;-2.64;85.66
75387;DHT22;63966;47.914;22.266;2023-02-13T00:34:51;-2.70;85.99
75387;DHT22;63966;47.914;22.266;2023-02-13T00:37:54;-2.77;86.17
75387;DHT22;63966;47.914;22.266;2023-02-13T00:41:01;-2.85;86.37
75387;DHT22;63966;47.914;22.266;2023-02-13T00:44:05;-2.88;86.69
75387;DHT22;63966;47.914;22.266;2023-02-13T00:47:08;-2.91;86.71
75387;DHT22;63966;47.914;22.266;2023-02-13T00:50:12;-2.97;86.96
75387;DHT22;63966;47.914;22.266;2023-02-13T00:53:15;-2.67;86.41
75387;DHT22;63966;47.914;22.266;2023-02-13T00:56:20;-2.85;86.25
75387;DHT22;63966;47.914;22.266;2023-02-13T00:59:24;-3.01;86.97
75387;DHT22;63966;47.914;22.266;2023-02-13T01:02:27;-3.05;87.29
75387;DHT22;63966;47.914;22.266;2023-02-13T01:05:31;-3.09;87.45
75387;DHT22;63966;47.914;22.266;2023-02-13T01:08:37;-3.19;87.65
75387;DHT22;63966;47.914;22.266;2023-02-13T01:11:41;-3.25;87.78
75387;DHT22;63966;47.914;22.266;2023-02-13T01:14:44;-3.21;87.65
75387;DHT22;63966;47.914;22.266;2023-02-13T01:17:48;-3.34;87.20
75387;DHT22;63966;47.914;22.266;2023-02-13T01:21:00;-3.57;86.79
75387;DHT22;63966;47.914;22.266;2023-02-13T01:24:04;-3.83;87.50
75387;DHT22;63966;47.914;22.266;2023-02-13T01:27:09;-3.93;88.39
75387;DHT22;63966;47.914;22.266;2023-02-13T01:30:15;-3.95;89.20
75387;DHT22;63966;47.914;22.266;2023-02-13T01:33:19;-3.83;89.64
75387;DHT22;63966;47.914;22.266;2023-02-13T01:36:22;-3.80;89.45
75387;DHT22;63966;47.914;22.266;2023-02-13T01:39:26;-3.77;89.45
75387;DHT22;63966;47.914;22.266;2023-02-13T01:42:31;-3.80;89.42
75387;DHT22;63966;47.914;22.266;2023-02-13T01:45:35;-3.87;89.52
75387;DHT22;63966;47.914;22.266;2023-02-13T01:48:38;-3.83;89.80
75387;DHT22;63966;47.914;22.266;2023-02-13T01:51:42;-3.80;89.65
75387;DHT22;63966;47.914;22.266;2023-02-13T01:54:47;-3.84;89.70
75387;DHT22;63966;47.914;22.266;2023-02-13T01:58:00;-3.86;89.80
75387;DHT22;63966;47.914;22.266;2023-02-13T02:01:05;-3.90;89.54
75387;DHT22;63966;47.914;22.266;2023-02-13T02:04:22;-3.95;89.67
75387;DHT22;63966;47.914;22.266;2023-02-13T02:07:29;-4.02;89.86
75387;DHT22;63966;47.914;22.266;2023-02-13T02:10:39;-4.02;90.20
75387;DHT22;63966;47.914;22.266;2023-02-13T02:13:44;-4.02;90.10
75387;DHT22;63966;47.914;22.266;2023-02-13T02:16:47;-4.19;89.33
75387;DHT22;63966;47.914;22.266;2023-02-13T02:33:28;-3.69;89.41
75387;DHT22;63966;47.914;22.266;2023-02-13T02:46:20;-3.98;89.48
75387;DHT22;63966;47.914;22.266;2023-02-13T02:49:26;-4.01;89.97
75387;DHT22;63966;47.914;22.266;2023-02-13T02:53:11;-4.02;89.78
75387;DHT22;63966;47.914;22.266;2023-02-13T02:56:39;-4.08;89.89
75387;DHT22;63966;47.914;22.266;2023-02-13T02:59:46;-4.04;90.60
75387;DHT22;63966;47.914;22.266;2023-02-13T03:03:18;-4.11;90.66
75387;DHT22;63966;47.914;22.266;2023-02-13T03:06:57;-4.12;90.68
75387;DHT22;63966;47.914;22.266;2023-02-13T03:10:05;-4.18;90.40
75387;DHT22;63966;47.914;22.266;2023-02-13T03:16:42;-4.26;90.54
75387;DHT22;63966;47.914;22.266;2023-02-13T03:20:22;-4.30;90.67
75387;DHT22;63966;47.914;22.266;2023-02-13T03:24:16;-4.35;90.81
75387;DHT22;63966;47.914;22.266;2023-02-13T03:27:48;-4.42;90.63
75387;DHT22;63966;47.914;22.266;2023-02-13T03:39:28;-4.66;90.93
75387;DHT22;63966;47.914;22.266;2023-02-13T03:45:49;-4.64;91.53
75387;DHT22;63966;47.914;22.266;2023-02-13T03:48:56;-4.63;91.65
75387;DHT22;63966;47.914;22.266;2023-02-13T03:52:48;-4.73;90.95
75387;DHT22;63966;47.914;22.266;2023-02-13T03:55:53;-4.73;90.92
75387;DHT22;63966;47.914;22.266;2023-02-13T03:59:23;-4.76;90.93
75387;DHT22;63966;47.914;22.266;2023-02-13T04:02:32;-4.83;90.85
75387;DHT22;63966;47.914;22.266;2023-02-13T04:05:42;-4.87;91.06
75387;DHT22;63966;47.914;22.266;2023-02-13T04:08:47;-4.79;91.32
75387;DHT22;63966;47.914;22.266;2023-02-13T04:12:20;-4.69;91.21
75387;DHT22;63966;47.914;22.266;2023-02-13T04:18:43;-4.63;91.16
75387;DHT22;63966;47.914;22.266;2023-02-13T04:21:53;-4.60;91.07
75387;DHT22;63966;47.914;22.266;2023-02-13T04:24:58;-4.60;90.98
75387;DHT22;63966;47.914;22.266;2023-02-13T04:28:01;-4.50;91.16
75387;DHT22;63966;47.914;22.266;2023-02-13T04:31:05;-4.57;90.92
75387;DHT22;63966;47.914;22.266;2023-02-13T04:34:09;-4.76;90.14
75387;DHT22;63966;47.914;22.266;2023-02-13T04:37:12;-4.91;89.65
75387;DHT22;63966;47.914;22.266;2023-02-13T04:40:16;-4.93;89.94
75387;DHT22;63966;47.914;22.266;2023-02-13T04:43:19;-4.93;90.42
75387;DHT22;63966;47.914;22.266;2023-02-13T04:46:23;-4.91;90.47
75387;DHT22;63966;47.914;22.266;2023-02-13T04:49:26;-4.84;90.37
75387;DHT22;63966;47.914;22.266;2023-02-13T04:52:30;-4.84;90.53
75387;DHT22;63966;47.914;22.266;2023-02-13T04:55:33;-4.87;90.42
75387;DHT22;63966;47.914;22.266;2023-02-13T04:58:37;-5.09;88.56
75387;DHT22;63966;47.914;22.266;2023-02-13T05:01:41;-5.28;88.54
75387;DHT22;63966;47.914;22.266;2023-02-13T05:04:44;-5.33;88.71
75387;DHT22;63966;47.914;22.266;2023-02-13T05:07:47;-5.33;89.14
75387;DHT22;63966;47.914;22.266;2023-02-13T05:10:51;-5.36;89.80
75387;DHT22;63966;47.914;22.266;2023-02-13T05:13:54;-5.38;89.57
75387;DHT22;63966;47.914;22.266;2023-02-13T05:16:58;-5.38;89.38
75387;DHT22;63966;47.914;22.266;2023-02-13T05:20:01;-5.29;89.87
75387;DHT22;63966;47.914;22.266;2023-02-13T05:23:07;-5.18;89.69
75387;DHT22;63966;47.914;22.266;2023-02-13T05:26:26;-5.07;90.12
75387;DHT22;63966;47.914;22.266;2023-02-13T05:29:29;-5.04;89.64
75387;DHT22;63966;47.914;22.266;2023-02-13T05:32:33;-5.04;89.42
75387;DHT22;63966;47.914;22.266;2023-02-13T05:35:36;-4.98;89.37
75387;DHT22;63966;47.914;22.266;2023-02-13T05:38:39;-4.98;89.29
75387;DHT22;63966;47.914;22.266;2023-02-13T05:41:44;-4.98;88.86
75387;DHT22;63966;47.914;22.266;2023-02-13T05:44:48;-4.87;88.47
75387;DHT22;63966;47.914;22.266;2023-02-13T05:47:51;-4.56;87.97
75387;DHT22;63966;47.914;22.266;2023-02-13T05:50:55;-3.83;88.15
75387;DHT22;63966;47.914;22.266;2023-02-13T05:53:58;-3.28;86.34
75387;DHT22;63966;47.914;22.266;2023-02-13T05:57:02;-3.29;84.39
75387;DHT22;63966;47.914;22.266;2023-02-13T06:00:06;-3.36;84.28
75387;DHT22;63966;47.914;22.266;2023-02-13T06:03:10;-3.12;83.00
75387;DHT22;63966;47.914;22.266;2023-02-13T06:06:14;-3.35;83.10
75387;DHT22;63966;47.914;22.266;2023-02-13T06:09:17;-3.46;82.80
75387;DHT22;63966;47.914;22.266;2023-02-13T06:12:21;-3.67;83.88
75387;DHT22;63966;47.914;22.266;2023-02-13T06:15:24;-3.43;84.24
75387;DHT22;63966;47.914;22.266;2023-02-13T06:18:28;-1.06;77.72
75387;DHT22;63966;47.914;22.266;2023-02-13T06:21:31;0.26;71.00
75387;DHT22;63966;47.914;22.266;2023-02-13T06:24:40;1.09;67.34
75387;DHT22;63966;47.914;22.266;2023-02-13T06:27:43;1.21;66.35
75387;DHT22;63966;47.914;22.266;2023-02-13T06:30:47;1.80;66.00
75387;DHT22;63966;47.914;22.266;2023-02-13T06:33:51;2.43;63.65
75387;DHT22;63966;47.914;22.266;2023-02-13T06:36:54;3.12;62.13
75387;DHT22;63966;47.914;22.266;2023-02-13T06:39:58;3.82;60.50
75387;DHT22;63966;47.914;22.266;2023-02-13T06:43:02;4.42;59.20
75387;DHT22;63966;47.914;22.266;2023-02-13T06:46:07;4.66;57.77
75387;DHT22;63966;47.914;22.266;2023-02-13T06:49:11;5.16;56.33
75387;DHT22;63966;47.914;22.266;2023-02-13T06:52:15;5.38;55.71
75387;DHT22;63966;47.914;22.266;2023-02-13T06:55:19;5.75;54.44
75387;DHT22;63966;47.914;22.266;2023-02-13T06:58:24;5.92;54.63
75387;DHT22;63966;47.914;22.266;2023-02-13T07:01:28;5.99;54.35
75387;DHT22;63966;47.914;22.266;2023-02-13T07:04:32;6.54;53.45
75387;DHT22;63966;47.914;22.266;2023-02-13T07:07:36;6.91;52.49
75387;DHT22;63966;47.914;22.266;2023-02-13T07:10:41;6.96;52.22
75387;DHT22;63966;47.914;22.266;2023-02-13T07:13:45;7.38;51.37
75387;DHT22;63966;47.914;22.266;2023-02-13T07:16:49;7.64;50.77
75387;DHT22;63966;47.914;22.266;2023-02-13T07:19:52;7.57;51.21
75387;DHT22;63966;47.914;22.266;2023-02-13T07:23:04;7.99;50.56
75387;DHT22;63966;47.914;22.266;2023-02-13T07:26:08;8.34;48.77
75387;DHT22;63966;47.914;22.266;2023-02-13T07:29:13;8.33;49.09
75387;DHT22;63966;47.914;22.266;2023-02-13T07:32:17;8.63;48.19
75387;DHT22;63966;47.914;22.266;2023-02-13T07:35:20;8.13;49.38
75387;DHT22;63966;47.914;22.266;2023-02-13T07:38:23;7.98;47.98
75387;DHT22;63966;47.914;22.266;2023-02-13T07:41:27;7.78;48.73
75387;DHT22;63966;47.914;22.266;2023-02-13T07:44:31;7.73;48.68
75387;DHT22;63966;47.914;22.266;2023-02-13T07:47:35;7.94;48.76
75387;DHT22;63966;47.914;22.266;2023-02-13T07:50:39;8.51;48.53
75387;DHT22;63966;47.914;22.266;2023-02-13T07:53:44;8.64;47.57
75387;DHT22;63966;47.914;22.266;2023-02-13T07:56:48;8.88;46.85
75387;DHT22;63966;47.914;22.266;2023-02-13T07:59:52;9.29;46.22
75387;DHT22;63966;47.914;22.266;2023-02-13T08:02:59;9.53;46.58
75387;DHT22;63966;47.914;22.266;2023-02-13T08:06:03;9.28;45.42
75387;DHT22;63966;47.914;22.266;2023-02-13T08:09:18;8.21;49.06
75387;DHT22;63966;47.914;22.266;2023-02-13T08:12:43;7.09;52.15
75387;DHT22;63966;47.914;22.266;2023-02-13T08:15:47;6.09;54.58
75387;DHT22;63966;47.914;22.266;2023-02-13T08:18:50;5.24;58.98
75387;DHT22;63966;47.914;22.266;2023-02-13T08:21:54;5.06;61.07
75387;DHT22;63966;47.914;22.266;2023-02-13T08:24:57;4.73;62.17
75387;DHT22;63966;47.914;22.266;2023-02-13T08:28:01;4.17;63.06
75387;DHT22;63966;47.914;22.266;2023-02-13T08:31:14;3.63;65.02
75387;DHT22;63966;47.914;22.266;2023-02-13T08:34:18;3.29;66.15
75387;DHT22;63966;47.914;22.266;2023-02-13T08:37:23;3.18;67.01
75387;DHT22;63966;47.914;22.266;2023-02-13T08:40:27;3.10;67.69
75387;DHT22;63966;47.914;22.266;2023-02-13T08:43:30;3.46;66.98
75387;DHT22;63966;47.914;22.266;2023-02-13T08:46:34;3.38;68.04
75387;DHT22;63966;47.914;22.266;2023-02-13T08:49:42;3.55;68.47
75387;DHT22;63966;47.914;22.266;2023-02-13T08:52:51;3.62;68.29
75387;DHT22;63966;47.914;22.266;2023-02-13T08:55:56;3.72;66.96
75387;DHT22;63966;47.914;22.266;2023-02-13T08:59:00;3.87;67.00
75387;DHT22;63966;47.914;22.266;2023-02-13T09:02:04;4.10;66.09
75387;DHT22;63966;47.914;22.266;2023-02-13T09:05:07;4.25;65.95
75387;DHT22;63966;47.914;22.266;2023-02-13T09:08:11;4.16;64.58
75387;DHT22;63966;47.914;22.266;2023-02-13T09:11:15;3.89;65.80
75387;DHT22;63966;47.914;22.266;2023-02-13T09:14:19;3.79;65.02
75387;DHT22;63966;47.914;22.266;2023-02-13T09:17:23;4.00;65.76
75387;DHT22;63966;47.914;22.266;2023-02-13T09:20:26;3.87;66.36
75387;DHT22;63966;47.914;22.266;2023-02-13T09:23:31;4.04;65.35
75387;DHT22;63966;47.914;22.266;2023-02-13T09:26:35;4.04;65.90
75387;DHT22;63966;47.914;22.266;2023-02-13T09:29:39;4.03;64.79
75387;DHT22;63966;47.914;22.266;2023-02-13T09:32:42;4.16;65.26
75387;DHT22;63966;47.914;22.266;2023-02-13T09:35:46;4.16;64.55
75387;DHT22;63966;47.914;22.266;2023-02-13T09:38:54;4.30;65.58
75387;DHT22;63966;47.914;22.266;2023-02-13T09:41:59;4.40;64.37
75387;DHT22;63966;47.914;22.266;2023-02-13T09:45:04;4.48;63.59
75387;DHT22;63966;47.914;22.266;2023-02-13T09:48:23;4.54;61.64
75387;DHT22;63966;47.914;22.266;2023-02-13T09:51:31;4.45;63.58
75387;DHT22;63966;47.914;22.266;2023-02-13T09:54:34;4.40;63.65
75387;DHT22;63966;47.914;22.266;2023-02-13T09:57:47;4.58;62.69
75387;DHT22;63966;47.914;22.266;2023-02-13T10:00:57;4.83;60.05
75387;DHT22;63966;47.914;22.266;2023-02-13T10:10:51;4.87;59.37
75387;DHT22;63966;47.914;22.266;2023-02-13T10:14:16;4.99;59.24
75387;DHT22;63966;47.914;22.266;2023-02-13T10:17:25;4.93;61.03
75387;DHT22;63966;47.914;22.266;2023-02-13T10:20:42;5.17;61.18
75387;DHT22;63966;47.914;22.266;2023-02-13T10:27:20;5.38;60.24
75387;DHT22;63966;47.914;22.266;2023-02-13T10:30:32;5.48;60.38
75387;DHT22;63966;47.914;22.266;2023-02-13T10:33:50;5.78;60.48
75387;DHT22;63966;47.914;22.266;2023-02-13T10:36:54;6.27;58.89
75387;DHT22;63966;47.914;22.266;2023-02-13T10:39:58;6.86;57.96
75387;DHT22;63966;47.914;22.266;2023-02-13T10:43:09;7.17;59.08
75387;DHT22;63966;47.914;22.266;2023-02-13T10:50:05;7.02;58.78
75387;DHT22;63966;47.914;22.266;2023-02-13T10:53:43;6.81;59.48
75387;DHT22;63966;47.914;22.266;2023-02-13T10:57:17;6.54;59.35
75387;DHT22;63966;47.914;22.266;2023-02-13T11:03:45;7.06;58.40
75387;DHT22;63966;47.914;22.266;2023-02-13T11:06:58;7.55;57.01
75387;DHT22;63966;47.914;22.266;2023-02-13T11:10:12;7.61;57.00
75387;DHT22;63966;47.914;22.266;2023-02-13T11:13:24;7.70;57.26
75387;DHT22;63966;47.914;22.266;2023-02-13T11:20:00;7.48;58.69
75387;DHT22;63966;47.914;22.266;2023-02-13T11:26:35;7.61;58.80
75387;DHT22;63966;47.914;22.266;2023-02-13T11:29:57;7.91;59.18
75387;DHT22;63966;47.914;22.266;2023-02-13T11:36:30;7.74;58.45
75387;DHT22;63966;47.914;22.266;2023-02-13T11:39:35;7.42;58.48
75387;DHT22;63966;47.914;22.266;2023-02-13T11:42:50;7.26;59.05
75387;DHT22;63966;47.914;22.266;2023-02-13T11:46:26;7.44;59.43
75387;DHT22;63966;47.914;22.266;2023-02-13T11:49:35;7.47;58.79
75387;DHT22;63966;47.914;22.266;2023-02-13T11:52:39;7.30;58.92
75387;DHT22;63966;47.914;22.266;2023-02-13T11:55:45;7.38;59.41
75387;DHT22;63966;47.914;22.266;2023-02-13T11:59:03;7.54;58.44
75387;DHT22;63966;47.914;22.266;2023-02-13T12:08:26;7.06;60.06
75387;DHT22;63966;47.914;22.266;2023-02-13T12:14:51;7.12;59.84
75387;DHT22;63966;47.914;22.266;2023-02-13T12:21:35;6.96;61.56
75387;DHT22;63966;47.914;22.266;2023-02-13T12:25:22;6.86;62.26
75387;DHT22;63966;47.914;22.266;2023-02-13T12:35:42;7.51;59.90
75387;DHT22;63966;47.914;22.266;2023-02-13T12:55:27;7.07;61.63
75387;DHT22;63966;47.914;22.266;2023-02-13T12:58:44;6.98;62.28
75387;DHT22;63966;47.914;22.266;2023-02-13T13:05:47;7.13;61.47
75387;DHT22;63966;47.914;22.266;2023-02-13T13:22:35;7.42;61.53
75387;DHT22;63966;47.914;22.266;2023-02-13T13:28:57;7.38;61.52
75387;DHT22;63966;47.914;22.266;2023-02-13T13:32:06;7.27;61.18
75387;DHT22;63966;47.914;22.266;2023-02-13T13:35:14;7.19;61.70
75387;DHT22;63966;47.914;22.266;2023-02-13T13:51:41;6.81;62.23
75387;DHT22;63966;47.914;22.266;2023-02-13T13:54:45;6.85;62.13
75387;DHT22;63966;47.914;22.266;2023-02-13T13:57:57;6.71;62.22
75387;DHT22;63966;47.914;22.266;2023-02-13T14:01:48;6.71;62.83
75387;DHT22;63966;47.914;22.266;2023-02-13T14:09:00;7.10;62.08
75387;DHT22;63966;47.914;22.266;2023-02-13T14:12:49;6.91;64.01
75387;DHT22;63966;47.914;22.266;2023-02-13T14:15:52;6.89;63.05
75387;DHT22;63966;47.914;22.266;2023-02-13T14:18:57;6.98;63.02
75387;DHT22;63966;47.914;22.266;2023-02-13T14:25:26;6.33;66.28
75387;DHT22;63966;47.914;22.266;2023-02-13T14:28:30;6.03;66.68
75387;DHT22;63966;47.914;22.266;2023-02-13T14:31:36;5.96;66.69
75387;DHT22;63966;47.914;22.266;2023-02-13T14:34:48;5.79;67.70
75387;DHT22;63966;47.914;22.266;2023-02-13T14:37:56;5.96;66.98
75387;DHT22;63966;47.914;22.266;2023-02-13T14:41:03;5.89;67.40
75387;DHT22;63966;47.914;22.266;2023-02-13T14:44:35;5.75;68.34
75387;DHT22;63966;47.914;22.266;2023-02-13T14:47:46;5.90;67.75
75387;DHT22;63966;47.914;22.266;2023-02-13T14:50:55;5.62;67.87
75387;DHT22;63966;47.914;22.266;2023-02-13T14:57:22;5.26;69.56
75387;DHT22;63966;47.914;22.266;2023-02-13T15:04:26;5.41;68.90
75387;DHT22;63966;47.914;22.266;2023-02-13T15:07:35;5.34;69.31
75387;DHT22;63966;47.914;22.266;2023-02-13T15:13:49;5.44;68.40
75387;DHT22;63966;47.914;22.266;2023-02-13T15:17:40;5.45;67.95
75387;DHT22;63966;47.914;22.266;2023-02-13T15:20:25;5.47;67.75
75387;DHT22;63966;47.914;22.266;2023-02-13T15:23:31;5.28;68.40
75387;DHT22;63966;47.914;22.266;2023-02-13T15:26:35;5.35;68.51
75387;DHT22;63966;47.914;22.266;2023-02-13T15:29:53;5.24;69.21
75387;DHT22;63966;47.914;22.266;2023-02-13T15:33:02;5.14;69.36
75387;DHT22;63966;47.914;22.266;2023-02-13T15:36:06;5.19;69.07
75387;DHT22;63966;47.914;22.266;2023-02-13T15:39:16;4.94;69.96
75387;DHT22;63966;47.914;22.266;2023-02-13T15:42:21;4.80;70.61
75387;DHT22;63966;47.914;22.266;2023-02-13T15:45:26;4.72;70.85
75387;DHT22;63966;47.914;22.266;2023-02-13T15:48:38;4.71;71.02
75387;DHT22;63966;47.914;22.266;2023-02-13T15:51:42;4.64;71.20
75387;DHT22;63966;47.914;22.266;2023-02-13T15:54:51;4.62;71.29
75387;DHT22;63966;47.914;22.266;2023-02-13T15:57:58;4.58;71.59
75387;DHT22;63966;47.914;22.266;2023-02-13T16:01:06;4.52;71.75
75387;DHT22;63966;47.914;22.266;2023-02-13T16:04:12;4.56;71.60
75387;DHT22;63966;47.914;22.266;2023-02-13T16:07:16;4.55;71.66
75387;DHT22;63966;47.914;22.266;2023-02-13T16:10:32;4.55;71.69
75387;DHT22;63966;47.914;22.266;2023-02-13T16:13:36;4.48;71.94
75387;DHT22;63966;47.914;22.266;2023-02-13T16:20:04;4.40;72.31
75387;DHT22;63966;47.914;22.266;2023-02-13T16:23:16;4.25;72.79
75387;DHT22;63966;47.914;22.266;2023-02-13T16:26:21;4.20;72.88
75387;DHT22;63966;47.914;22.266;2023-02-13T16:29:25;4.07;73.23
75387;DHT22;63966;47.914;22.266;2023-02-13T16:32:32;3.89;73.91
75387;DHT22;63966;47.914;22.266;2023-02-13T16:38:49;3.51;75.21
75387;DHT22;63966;47.914;22.266;2023-02-13T16:41:53;3.36;75.98
75387;DHT22;63966;47.914;22.266;2023-02-13T16:45:29;3.29;76.26
75387;DHT22;63966;47.914;22.266;2023-02-13T16:48:33;3.34;76.14
75387;DHT22;63966;47.914;22.266;2023-02-13T16:54:48;3.28;76.18
75387;DHT22;63966;47.914;22.266;2023-02-13T16:58:01;3.32;76.16
75387;DHT22;63966;47.914;22.266;2023-02-13T17:01:05;3.29;76.34
75387;DHT22;63966;47.914;22.266;2023-02-13T17:04:35;3.34;76.19
75387;DHT22;63966;47.914;22.266;2023-02-13T17:07:46;3.38;76.00
75387;DHT22;63966;47.914;22.266;2023-02-13T17:11:08;3.43;75.77
75387;DHT22;63966;47.914;22.266;2023-02-13T17:14:19;3.45;75.65
75387;DHT22;63966;47.914;22.266;2023-02-13T17:17:23;3.45;75.75
75387;DHT22;63966;47.914;22.266;2023-02-13T17:20:33;3.54;75.75
75387;DHT22;63966;47.914;22.266;2023-02-13T17:23:37;3.36;76.09
75387;DHT22;63966;47.914;22.266;2023-02-13T17:26:42;3.27;76.48
75387;DHT22;63966;47.914;22.266;2023-02-13T17:29:46;3.20;76.59
75387;DHT22;63966;47.914;22.266;2023-02-13T17:32:58;3.29;75.79
75387;DHT22;63966;47.914;22.266;2023-02-13T17:36:01;3.28;75.98
75387;DHT22;63966;47.914;22.266;2023-02-13T17:39:05;3.25;75.74
75387;DHT22;63966;47.914;22.266;2023-02-13T17:42:14;3.27;75.66
75387;DHT22;63966;47.914;22.266;2023-02-13T17:45:24;3.35;75.23
75387;DHT22;63966;47.914;22.266;2023-02-13T17:48:29;3.41;74.99
75387;DHT22;63966;47.914;22.266;2023-02-13T17:51:32;3.52;74.25
75387;DHT22;63966;47.914;22.266;2023-02-13T17:54:37;3.62;73.93
75387;DHT22;63966;47.914;22.266;2023-02-13T17:57:41;3.56;73.93
75387;DHT22;63966;47.914;22.266;2023-02-13T18:00:45;3.49;74.24
75387;DHT22;63966;47.914;22.266;2023-02-13T18:03:49;3.41;74.73
75387;DHT22;63966;47.914;22.266;2023-02-13T18:06:53;3.51;74.58
75387;DHT22;63966;47.914;22.266;2023-02-13T18:09:57;3.54;74.28
75387;DHT22;63966;47.914;22.266;2023-02-13T18:13:01;3.54;74.32
75387;DHT22;63966;47.914;22.266;2023-02-13T18:16:09;3.54;74.11
75387;DHT22;63966;47.914;22.266;2023-02-13T18:19:14;3.51;74.42
75387;DHT22;63966;47.914;22.266;2023-02-13T18:22:18;3.46;74.38
75387;DHT22;63966;47.914;22.266;2023-02-13T18:25:22;3.38;74.59
75387;DHT22;63966;47.914;22.266;2023-02-13T18:28:26;3.34;74.92
75387;DHT22;63966;47.914;22.266;2023-02-13T18:31:32;3.35;74.87
75387;DHT22;63966;47.914;22.266;2023-02-13T18:34:36;3.42;74.83
75387;DHT22;63966;47.914;22.266;2023-02-13T18:37:39;3.42;74.61
75387;DHT22;63966;47.914;22.266;2023-02-13T18:40:43;3.32;75.08
75387;DHT22;63966;47.914;22.266;2023-02-13T18:43:47;3.29;74.99
75387;DHT22;63966;47.914;22.266;2023-02-13T18:46:51;3.27;75.06
75387;DHT22;63966;47.914;22.266;2023-02-13T18:49:55;3.20;75.31
75387;DHT22;63966;47.914;22.266;2023-02-13T18:52:58;3.29;75.04
75387;DHT22;63966;47.914;22.266;2023-02-13T18:56:05;3.29;74.96
75387;DHT22;63966;47.914;22.266;2023-02-13T18:59:09;3.31;74.75
75387;DHT22;63966;47.914;22.266;2023-02-13T19:02:13;3.20;74.85
75387;DHT22;63966;47.914;22.266;2023-02-13T19:05:17;3.18;74.98
75387;DHT22;63966;47.914;22.266;2023-02-13T19:08:21;3.17;75.05
75387;DHT22;63966;47.914;22.266;2023-02-13T19:11:26;3.12;75.42
75387;DHT22;63966;47.914;22.266;2023-02-13T19:14:30;3.12;74.83
75387;DHT22;63966;47.914;22.266;2023-02-13T19:17:34;3.11;74.99
75387;DHT22;63966;47.914;22.266;2023-02-13T19:20:39;3.12;75.03
75387;DHT22;63966;47.914;22.266;2023-02-13T19:23:43;3.08;75.17
75387;DHT22;63966;47.914;22.266;2023-02-13T19:26:47;3.10;74.80
75387;DHT22;63966;47.914;22.266;2023-02-13T19:29:51;3.08;74.80
75387;DHT22;63966;47.914;22.266;2023-02-13T19:32:54;3.20;74.53
75387;DHT22;63966;47.914;22.266;2023-02-13T19:36:00;3.14;74.85
75387;DHT22;63966;47.914;22.266;2023-02-13T19:39:05;3.10;75.04
75387;DHT22;63966;47.914;22.266;2023-02-13T19:42:11;3.12;74.81
75387;DHT22;63966;47.914;22.266;2023-02-13T19:45:15;3.04;75.07
75387;DHT22;63966;47.914;22.266;2023-02-13T19:48:20;3.00;75.42
75387;DHT22;63966;47.914;22.266;2023-02-13T19:51:28;2.94;75.78
75387;DHT22;63966;47.914;22.266;2023-02-13T19:54:33;2.83;76.51
75387;DHT22;63966;47.914;22.266;2023-02-13T19:57:36;2.86;76.17
75387;DHT22;63966;47.914;22.266;2023-02-13T20:00:40;2.89;75.78
75387;DHT22;63966;47.914;22.266;2023-02-13T20:03:44;2.89;75.79
75387;DHT22;63966;47.914;22.266;2023-02-13T20:06:49;2.93;75.48
75387;DHT22;63966;47.914;22.266;2023-02-13T20:09:53;2.97;75.27
75387;DHT22;63966;47.914;22.266;2023-02-13T20:12:57;2.91;75.54
75387;DHT22;63966;47.914;22.266;2023-02-13T20:16:06;2.86;75.74
75387;DHT22;63966;47.914;22.266;2023-02-13T20:19:11;2.87;75.74
75387;DHT22;63966;47.914;22.266;2023-02-13T20:22:17;2.77;76.10
75387;DHT22;63966;47.914;22.266;2023-02-13T20:25:21;2.63;76.36
75387;DHT22;63966;47.914;22.266;2023-02-13T20:28:25;2.57;76.72
75387;DHT22;63966;47.914;22.266;2023-02-13T20:31:30;2.67;76.55
75387;DHT22;63966;47.914;22.266;2023-02-13T20:34:36;2.75;76.16
75387;DHT22;63966;47.914;22.266;2023-02-13T20:38:01;2.69;76.41
75387;DHT22;63966;47.914;22.266;2023-02-13T20:41:19;2.64;77.03
75387;DHT22;63966;47.914;22.266;2023-02-13T20:44:23;2.76;76.06
75387;DHT22;63966;47.914;22.266;2023-02-13T20:47:27;2.77;76.32
75387;DHT22;63966;47.914;22.266;2023-02-13T20:50:30;2.76;76.33
75387;DHT22;63966;47.914;22.266;2023-02-13T20:53:34;2.79;76.20
75387;DHT22;63966;47.914;22.266;2023-02-13T20:56:38;2.82;76.19
75387;DHT22;63966;47.914;22.266;2023-02-13T20:59:43;2.79;76.75
75387;DHT22;63966;47.914;22.266;2023-02-13T21:02:47;2.79;76.76
75387;DHT22;63966;47.914;22.266;2023-02-13T21:05:51;2.75;76.77
75387;DHT22;63966;47.914;22.266;2023-02-13T21:08:56;2.72;77.48
75387;DHT22;63966;47.914;22.266;2023-02-13T21:11:59;2.50;78.18
75387;DHT22;63966;47.914;22.266;2023-02-13T21:15:03;2.48;77.50
75387;DHT22;63966;47.914;22.266;2023-02-13T21:18:07;2.50;77.81
75387;DHT22;63966;47.914;22.266;2023-02-13T21:21:12;2.45;78.60
75387;DHT22;63966;47.914;22.266;2023-02-13T21:24:20;2.35;78.79
75387;DHT22;63966;47.914;22.266;2023-02-13T21:27:24;2.22;79.78
75387;DHT22;63966;47.914;22.266;2023-02-13T21:30:28;2.13;79.81
75387;DHT22;63966;47.914;22.266;2023-02-13T21:33:32;2.00;80.48
75387;DHT22;63966;47.914;22.266;2023-02-13T21:36:36;2.01;80.60
75387;DHT22;63966;47.914;22.266;2023-02-13T21:39:40;2.17;79.83
75387;DHT22;63966;47.914;22.266;2023-02-13T21:42:44;1.93;80.43
75387;DHT22;63966;47.914;22.266;2023-02-13T21:45:47;1.86;81.03
75387;DHT22;63966;47.914;22.266;2023-02-13T21:48:59;1.70;81.60
75387;DHT22;63966;47.914;22.266;2023-02-13T21:52:03;1.63;82.19
75387;DHT22;63966;47.914;22.266;2023-02-13T21:55:06;1.70;81.75
75387;DHT22;63966;47.914;22.266;2023-02-13T21:58:10;1.70;82.01
75387;DHT22;63966;47.914;22.266;2023-02-13T22:01:19;1.74;81.81
75387;DHT22;63966;47.914;22.266;2023-02-13T22:04:29;1.66;82.26
75387;DHT22;63966;47.914;22.266;2023-02-13T22:07:32;1.71;82.38
75387;DHT22;63966;47.914;22.266;2023-02-13T22:10:57;1.71;82.24
75387;DHT22;63966;47.914;22.266;2023-02-13T22:14:03;1.66;82.41
75387;DHT22;63966;47.914;22.266;2023-02-13T22:17:07;1.70;82.48
75387;DHT22;63966;47.914;22.266;2023-02-13T22:20:11;1.66;82.59
75387;DHT22;63966;47.914;22.266;2023-02-13T22:23:15;1.71;82.24
75387;DHT22;63966;47.914;22.266;2023-02-13T22:26:29;1.49;82.90
75387;DHT22;63966;47.914;22.266;2023-02-13T22:29:33;1.47;83.11